createdAt,value
2017-06-01T00:01:12.344Z,52.80
2017-06-01T00:03:40.636Z,53.20
2017-06-01T00:06:08.916Z,53.10
2017-06-01T00:08:37.569Z,53.30
2017-06-01T00:11:05.849Z,53.50
2017-06-01T00:13:34.132Z,53.60
2017-06-01T00:16:02.755Z,53.40
2017-06-01T00:18:31.054Z,53.40
2017-06-01T00:20:59.357Z,53.80
2017-06-01T00:23:28.052Z,53.70
2017-06-01T00:25:56.374Z,54.10
2017-06-01T00:28:24.661Z,53.80
2017-06-01T00:30:53.246Z,54.20
2017-06-01T00:33:21.548Z,54.50
2017-06-01T00:35:49.844Z,54.50
2017-06-01T00:38:18.520Z,54.70
2017-06-01T00:40:46.842Z,55.20
2017-06-01T00:43:15.155Z,55.10
2017-06-01T00:45:43.816Z,55.50
2017-06-01T00:48:12.106Z,55.60
2017-06-01T00:50:40.447Z,55.50
2017-06-01T00:53:09.108Z,55.80
2017-06-01T00:55:37.400Z,56.30
2017-06-01T00:58:05.705Z,56.70
2017-06-01T01:00:34.393Z,57.00
2017-06-01T01:03:02.720Z,57.30
2017-06-01T01:05:31.030Z,57.30
2017-06-01T01:07:59.613Z,57.00
2017-06-01T01:10:27.916Z,57.00
2017-06-01T01:12:56.205Z,57.00
2017-06-01T01:15:24.778Z,56.90
2017-06-01T01:17:53.087Z,57.10
2017-06-01T01:20:21.398Z,57.20
2017-06-01T01:22:49.983Z,57.30
2017-06-01T01:25:18.274Z,57.70
2017-06-01T01:27:46.561Z,57.70
2017-06-01T01:30:15.274Z,57.90
2017-06-01T01:32:43.597Z,57.90
2017-06-01T01:35:11.891Z,58.10
2017-06-01T01:37:40.556Z,58.20
2017-06-01T01:40:08.853Z,58.20
2017-06-01T01:42:37.167Z,58.50
2017-06-01T01:45:05.767Z,59.00
2017-06-01T01:47:34.052Z,58.50
2017-06-01T01:50:02.337Z,58.70
2017-06-01T01:52:30.952Z,58.80
2017-06-01T01:57:28.108Z,59.00
2017-06-01T01:59:56.763Z,59.20
2017-06-01T02:02:25.071Z,59.50
2017-06-01T02:04:53.381Z,60.10
2017-06-01T02:07:22.031Z,60.00
2017-06-01T02:09:50.314Z,60.00
2017-06-01T02:12:18.628Z,60.30
2017-06-01T02:14:47.235Z,60.50
2017-06-01T02:17:15.526Z,60.50
2017-06-01T02:19:43.815Z,60.80
2017-06-01T02:22:12.431Z,60.60
2017-06-01T02:24:40.720Z,61.10
2017-06-01T02:27:09.020Z,61.10
2017-06-01T02:29:37.616Z,61.10
2017-06-01T02:32:06.037Z,60.70
2017-06-01T02:34:34.329Z,61.90
2017-06-01T02:37:02.907Z,61.20
2017-06-01T02:39:31.190Z,61.30
2017-06-01T02:41:59.478Z,61.30
2017-06-01T02:44:28.057Z,61.80
2017-06-01T02:46:56.373Z,62.00
2017-06-01T02:49:24.664Z,61.90
2017-06-01T02:51:53.301Z,62.20
2017-06-01T02:54:21.610Z,61.90
2017-06-01T02:56:49.924Z,62.00
2017-06-01T02:59:18.596Z,61.90
2017-06-01T03:01:46.888Z,62.20
2017-06-01T03:04:15.169Z,62.40
2017-06-01T03:06:43.875Z,62.50
2017-06-01T03:09:12.164Z,62.50
2017-06-01T03:11:40.493Z,62.00
2017-06-01T03:14:09.072Z,62.50
2017-06-01T03:16:37.378Z,63.00
2017-06-01T03:19:05.670Z,63.10
2017-06-01T03:21:33.563Z,63.10
2017-06-01T03:24:01.866Z,63.00
2017-06-01T03:26:30.169Z,63.20
2017-06-01T03:28:58.833Z,63.40
2017-06-01T03:31:27.128Z,63.90
2017-06-01T03:33:55.612Z,64.30
2017-06-01T03:36:24.216Z,63.70
2017-06-01T03:38:52.523Z,63.60
2017-06-01T03:41:20.814Z,64.20
2017-06-01T03:43:49.408Z,63.90
2017-06-01T03:46:17.692Z,64.20
2017-06-01T03:48:45.973Z,64.30
2017-06-01T03:51:14.639Z,63.80
2017-06-01T03:53:42.968Z,64.10
2017-06-01T03:56:11.277Z,64.50
2017-06-01T03:58:39.904Z,64.30
2017-06-01T04:01:08.198Z,64.30
2017-06-01T04:03:36.496Z,64.30
2017-06-01T04:06:05.094Z,64.30
2017-06-01T04:08:33.388Z,64.40
2017-06-01T04:11:01.691Z,64.70
2017-06-01T04:13:30.381Z,64.60
2017-06-01T04:15:58.663Z,64.50
2017-06-01T04:18:26.950Z,64.60
2017-06-01T04:20:55.596Z,65.60
2017-06-01T04:23:23.960Z,64.80
2017-06-01T04:25:52.269Z,64.00
2017-06-01T04:28:20.854Z,64.20
2017-06-01T04:30:49.146Z,64.20
2017-06-01T04:33:17.423Z,63.60
2017-06-01T04:35:46.065Z,62.90
2017-06-01T04:38:14.355Z,62.40
2017-06-01T04:40:42.631Z,61.90
2017-06-01T04:43:11.251Z,62.00
2017-06-01T04:45:39.541Z,62.40
2017-06-01T04:48:07.821Z,62.30
2017-06-01T04:50:36.576Z,61.70
2017-06-01T04:53:04.871Z,61.60
2017-06-01T04:55:33.183Z,62.60
2017-06-01T04:58:01.837Z,60.80
2017-06-01T05:00:30.120Z,62.10
2017-06-01T05:02:58.415Z,60.60
2017-06-01T05:05:27.140Z,60.00
2017-06-01T05:07:55.435Z,60.10
2017-06-01T05:10:23.733Z,60.20
2017-06-01T05:12:52.335Z,60.90
2017-06-01T05:15:20.628Z,60.80
2017-06-01T05:17:48.908Z,60.40
2017-06-01T05:20:17.514Z,59.90
2017-06-01T05:22:45.808Z,59.70
2017-06-01T05:25:14.106Z,60.30
2017-06-01T05:27:42.702Z,60.30
2017-06-01T05:30:10.995Z,60.60
2017-06-01T05:32:39.272Z,61.00
2017-06-01T05:35:07.888Z,60.10
2017-06-01T05:37:36.163Z,59.90
2017-06-01T05:40:04.453Z,59.80
2017-06-01T05:42:33.084Z,59.70
2017-06-01T05:45:01.367Z,58.70
2017-06-01T05:47:29.647Z,58.60
2017-06-01T05:49:58.276Z,58.40
2017-06-01T05:52:26.564Z,58.00
2017-06-01T05:54:54.880Z,57.40
2017-06-01T05:57:23.563Z,57.40
2017-06-01T05:59:51.839Z,57.00
2017-06-01T06:02:20.120Z,56.90
2017-06-01T06:04:48.687Z,56.50
2017-06-01T06:07:16.967Z,56.80
2017-06-01T06:09:45.251Z,56.80
2017-06-01T06:12:13.846Z,56.20
2017-06-01T06:14:42.123Z,56.10
2017-06-01T06:17:10.407Z,55.80
2017-06-01T06:19:39.561Z,55.80
2017-06-01T06:22:07.967Z,56.30
2017-06-01T06:24:36.267Z,55.90
2017-06-01T06:27:04.855Z,55.50
2017-06-01T06:29:33.156Z,55.70
2017-06-01T06:32:01.443Z,55.90
2017-06-01T06:34:30.043Z,55.80
2017-06-01T06:36:58.351Z,55.50
2017-06-01T06:39:26.624Z,54.10
2017-06-01T06:41:55.236Z,54.50
2017-06-01T06:44:23.513Z,54.20
2017-06-01T06:46:51.810Z,53.70
2017-06-01T06:49:20.422Z,54.10
2017-06-01T06:51:48.724Z,54.00
2017-06-01T06:54:17.049Z,54.10
2017-06-01T06:56:45.713Z,53.70
2017-06-01T06:59:14.067Z,53.50
2017-06-01T07:01:42.367Z,53.10
2017-06-01T07:04:11.019Z,52.30
2017-06-01T07:06:39.295Z,52.00
2017-06-01T07:09:07.575Z,51.80
2017-06-01T07:11:36.191Z,51.50
2017-06-01T07:14:04.472Z,51.40
2017-06-01T07:16:32.747Z,50.20
2017-06-01T07:19:01.408Z,49.80
2017-06-01T07:21:29.703Z,50.30
2017-06-01T07:23:58.016Z,49.40
2017-06-01T07:26:26.594Z,48.60
2017-06-01T07:28:54.880Z,47.90
2017-06-01T07:31:23.174Z,47.90
2017-06-01T07:33:51.825Z,48.00
2017-06-01T07:36:20.103Z,47.10
2017-06-01T07:38:48.378Z,47.00
2017-06-01T07:41:17.073Z,47.40
2017-06-01T07:43:45.351Z,47.30
2017-06-01T07:46:13.643Z,46.80
2017-06-01T07:48:42.256Z,46.50
2017-06-01T07:51:10.551Z,45.60
2017-06-01T07:53:38.834Z,44.50
2017-06-01T07:56:07.453Z,45.60
2017-06-01T07:58:35.740Z,44.30
2017-06-01T08:01:03.258Z,44.30
2017-06-01T08:03:31.836Z,44.80
2017-06-01T08:06:00.122Z,44.70
2017-06-01T08:08:28.398Z,44.20
2017-06-01T08:10:57.018Z,43.70
2017-06-01T08:13:25.303Z,43.80
2017-06-01T08:15:53.595Z,43.10
2017-06-01T08:18:22.201Z,43.00
2017-06-01T08:20:50.503Z,42.00
2017-06-01T08:23:18.783Z,42.20
2017-06-01T08:25:47.403Z,41.30
2017-06-01T08:28:15.691Z,41.40
2017-06-01T08:30:43.967Z,42.00
2017-06-01T08:33:12.592Z,41.40
2017-06-01T08:35:40.879Z,40.70
2017-06-01T08:38:09.157Z,39.80
2017-06-01T08:40:37.777Z,40.60
2017-06-01T08:43:06.059Z,40.60
2017-06-01T08:45:34.339Z,41.20
2017-06-01T08:48:02.987Z,40.20
2017-06-01T08:50:31.276Z,38.80
2017-06-01T08:52:59.558Z,40.00
2017-06-01T08:55:28.164Z,40.10
2017-06-01T08:57:56.528Z,39.00
2017-06-01T09:00:24.803Z,38.10
2017-06-01T09:02:53.467Z,38.60
2017-06-01T09:05:21.751Z,38.00
2017-06-01T09:07:50.021Z,38.00
2017-06-01T09:10:18.655Z,37.60
2017-06-01T09:12:46.929Z,38.00
2017-06-01T09:15:15.209Z,37.50
2017-06-01T09:17:43.845Z,37.20
2017-06-01T09:20:12.144Z,36.20
2017-06-01T09:22:40.419Z,36.80
2017-06-01T09:25:09.035Z,36.50
2017-06-01T09:27:37.331Z,35.60
2017-06-01T09:30:05.629Z,34.70
2017-06-01T09:32:34.225Z,34.40
2017-06-01T09:35:02.510Z,31.60
2017-06-01T09:37:30.800Z,32.00
2017-06-01T09:39:59.412Z,33.60
2017-06-01T09:42:27.686Z,32.70
2017-06-01T09:44:55.975Z,33.60
2017-06-01T09:47:24.603Z,33.40
2017-06-01T09:49:52.891Z,32.40
2017-06-01T09:52:21.173Z,32.10
2017-06-01T09:54:49.731Z,31.50
2017-06-01T09:57:18.016Z,30.10
2017-06-01T09:59:46.293Z,30.50
2017-06-01T10:02:14.881Z,31.80
2017-06-01T10:04:43.161Z,31.10
2017-06-01T10:07:11.441Z,30.30
2017-06-01T10:09:40.073Z,30.80
2017-06-01T10:12:08.376Z,30.00
2017-06-01T10:14:36.655Z,28.70
2017-06-01T10:17:05.230Z,29.30
2017-06-01T10:19:33.542Z,29.30
2017-06-01T10:22:01.832Z,29.80
2017-06-01T10:24:30.447Z,30.00
2017-06-01T10:26:58.742Z,30.00
2017-06-01T10:29:27.022Z,28.40
2017-06-01T10:31:55.658Z,26.60
2017-06-01T10:34:23.945Z,26.40
2017-06-01T10:36:52.248Z,26.40
2017-06-01T10:39:20.843Z,26.80
2017-06-01T10:41:49.134Z,26.50
2017-06-01T10:44:17.426Z,26.60
2017-06-01T10:46:46.028Z,27.80
2017-06-01T10:49:14.309Z,27.00
2017-06-01T10:51:42.615Z,26.40
2017-06-01T10:54:11.220Z,26.50
2017-06-01T10:56:39.503Z,26.80
2017-06-01T10:59:07.805Z,25.60
2017-06-01T11:01:36.385Z,25.70
2017-06-01T11:04:04.668Z,24.50
2017-06-01T11:06:32.967Z,26.00
2017-06-01T11:09:01.599Z,25.70
2017-06-01T11:11:29.891Z,25.00
2017-06-01T11:13:58.188Z,23.50
2017-06-01T11:16:26.762Z,24.40
2017-06-01T11:18:55.046Z,24.40
2017-06-01T11:21:23.331Z,24.40
2017-06-01T11:23:51.990Z,24.60
2017-06-01T11:26:20.283Z,25.30
2017-06-01T11:28:48.562Z,26.20
2017-06-01T11:31:17.384Z,24.70
2017-06-01T11:33:45.664Z,25.40
2017-06-01T11:36:13.951Z,24.90
2017-06-01T11:38:42.522Z,24.80
2017-06-01T11:41:10.799Z,23.30
2017-06-01T11:43:39.198Z,23.60
2017-06-01T11:46:07.773Z,24.30
2017-06-01T11:48:36.043Z,24.10
2017-06-01T11:51:04.322Z,25.30
2017-06-01T11:53:32.953Z,24.50
2017-06-01T11:56:01.227Z,22.60
2017-06-01T11:58:29.523Z,22.40
2017-06-01T12:00:58.247Z,23.30
2017-06-01T12:03:26.523Z,23.30
2017-06-01T12:05:54.804Z,24.00
2017-06-01T12:08:23.442Z,23.70
2017-06-01T12:10:51.732Z,23.30
2017-06-01T12:13:20.011Z,24.20
2017-06-01T12:15:48.559Z,23.60
2017-06-01T12:18:16.863Z,24.00
2017-06-01T12:20:45.147Z,21.60
2017-06-01T12:23:13.721Z,21.20
2017-06-01T12:25:42.008Z,22.00
2017-06-01T12:28:10.315Z,21.60
2017-06-01T12:30:38.907Z,22.70
2017-06-01T12:33:07.192Z,22.40
2017-06-01T12:35:35.496Z,23.20
2017-06-01T12:38:04.100Z,22.50
2017-06-01T12:40:32.391Z,23.10
2017-06-01T12:43:00.687Z,23.80
2017-06-01T12:45:29.302Z,23.00
2017-06-01T12:47:57.583Z,22.70
2017-06-01T12:50:25.903Z,22.60
2017-06-01T12:52:54.539Z,22.00
2017-06-01T12:55:22.827Z,21.30
2017-06-01T12:57:51.112Z,21.30
2017-06-01T13:00:24.184Z,21.60
2017-06-01T13:02:52.481Z,20.80
2017-06-01T13:05:20.800Z,22.40
2017-06-01T13:07:49.371Z,22.20
2017-06-01T13:10:17.651Z,22.10
2017-06-01T13:12:45.939Z,22.60
2017-06-01T13:15:14.565Z,21.70
2017-06-01T13:17:42.844Z,21.70
2017-06-01T13:20:11.116Z,21.20
2017-06-01T13:22:39.724Z,21.50
2017-06-01T13:25:08.017Z,21.40
2017-06-01T13:27:36.293Z,20.60
2017-06-01T13:30:04.953Z,21.20
2017-06-01T13:32:33.250Z,20.80
2017-06-01T13:35:01.564Z,19.30
2017-06-01T13:37:30.147Z,20.30
2017-06-01T13:39:58.421Z,19.30
2017-06-01T13:42:26.691Z,20.70
2017-06-01T13:44:55.427Z,20.60
2017-06-01T13:47:23.710Z,19.40
2017-06-01T13:49:52.000Z,19.50
2017-06-01T13:52:20.625Z,20.20
2017-06-01T13:54:48.995Z,20.20
2017-06-01T13:57:17.268Z,20.50
2017-06-01T13:59:45.918Z,20.40
2017-06-01T14:02:14.203Z,21.30
2017-06-01T14:04:42.480Z,20.80
2017-06-01T14:07:11.100Z,20.30
2017-06-01T14:09:39.388Z,20.90
2017-06-01T14:12:07.660Z,21.70
2017-06-01T14:14:36.300Z,21.30
2017-06-01T14:17:04.583Z,21.20
2017-06-01T14:19:32.858Z,21.30
2017-06-01T14:22:01.487Z,21.10
2017-06-01T14:24:29.791Z,20.90
2017-06-01T14:26:58.067Z,20.30
2017-06-01T14:29:26.727Z,20.80
2017-06-01T14:31:55.060Z,19.50
2017-06-01T14:34:23.330Z,19.90
2017-06-01T14:36:51.931Z,19.90
2017-06-01T14:39:20.235Z,20.80
2017-06-01T14:41:48.523Z,20.80
2017-06-01T14:44:17.168Z,21.40
2017-06-01T14:46:45.470Z,20.60
2017-06-01T14:49:13.869Z,19.80
2017-06-01T14:51:42.473Z,20.10
2017-06-01T14:54:10.765Z,20.60
2017-06-01T14:56:39.051Z,20.30
2017-06-01T14:59:07.664Z,20.70
2017-06-01T15:01:35.954Z,20.50
2017-06-01T15:04:04.274Z,20.30
2017-06-01T15:06:32.892Z,20.40
2017-06-01T15:09:01.184Z,20.20
2017-06-01T15:11:29.571Z,20.30
2017-06-01T15:13:58.244Z,20.50
2017-06-01T15:16:26.562Z,20.90
2017-06-01T15:18:54.865Z,21.00
2017-06-01T15:21:23.463Z,20.80
2017-06-01T15:23:51.769Z,21.00
2017-06-01T15:26:20.092Z,20.90
2017-06-01T15:28:48.748Z,20.50
2017-06-01T15:31:17.046Z,20.80
2017-06-01T15:33:45.327Z,20.30
2017-06-01T15:36:13.919Z,20.50
2017-06-01T15:38:42.224Z,20.40
2017-06-01T15:41:10.579Z,20.90
2017-06-01T15:43:39.242Z,21.60
2017-06-01T15:46:07.589Z,22.20
2017-06-01T15:48:35.889Z,22.10
2017-06-01T15:51:04.506Z,21.60
2017-06-01T15:53:32.799Z,21.60
2017-06-01T15:56:01.091Z,21.30
2017-06-01T15:58:29.664Z,21.70
2017-06-01T16:00:58.059Z,21.70
2017-06-01T16:03:26.364Z,21.70
2017-06-01T16:05:55.097Z,22.10
2017-06-01T16:08:23.372Z,21.70
2017-06-01T16:10:51.686Z,22.30
2017-06-01T16:13:20.285Z,21.80
2017-06-01T16:15:48.582Z,22.50
2017-06-01T16:18:16.879Z,22.80
2017-06-01T16:20:45.589Z,22.50
2017-06-01T16:23:14.168Z,22.40
2017-06-01T16:25:42.570Z,22.30
2017-06-01T16:28:11.202Z,22.00
2017-06-01T16:30:39.630Z,21.60
2017-06-01T16:33:07.967Z,22.40
2017-06-01T16:35:36.534Z,22.60
2017-06-01T16:38:04.844Z,23.10
2017-06-01T16:40:33.189Z,22.80
2017-06-01T16:43:02.033Z,22.00
2017-06-01T16:45:30.458Z,22.50
2017-06-01T16:47:58.732Z,21.40
2017-06-01T16:50:27.284Z,21.90
2017-06-01T16:52:55.694Z,21.60
2017-06-01T16:55:23.970Z,21.70
2017-06-01T16:57:52.632Z,21.80
2017-06-01T17:00:20.927Z,21.80
2017-06-01T17:02:49.204Z,21.80
2017-06-01T17:05:17.805Z,22.80
2017-06-01T17:07:46.087Z,22.10
2017-06-01T17:10:14.387Z,22.40
2017-06-01T17:12:43.015Z,22.00
2017-06-01T17:15:11.719Z,22.70
2017-06-01T17:17:40.058Z,21.40
2017-06-01T17:20:08.699Z,21.80
2017-06-01T17:22:36.989Z,21.40
2017-06-01T17:25:05.275Z,21.80
2017-06-01T17:27:33.894Z,21.80
2017-06-01T17:30:02.183Z,21.60
2017-06-01T17:32:30.471Z,21.70
2017-06-01T17:34:59.135Z,22.00
2017-06-01T17:37:27.452Z,22.30
2017-06-01T17:39:55.807Z,22.30
2017-06-01T17:42:24.358Z,22.40
2017-06-01T17:44:52.663Z,22.30
2017-06-01T17:47:20.941Z,22.50
2017-06-01T17:49:49.576Z,22.00
2017-06-01T17:52:17.104Z,22.00
2017-06-01T17:54:45.380Z,22.00
2017-06-01T17:57:13.960Z,22.00
2017-06-01T17:59:42.259Z,22.10
2017-06-01T18:02:10.554Z,22.30
2017-06-01T18:04:39.237Z,22.40
2017-06-01T18:07:07.531Z,22.50
2017-06-01T18:09:35.813Z,22.80
2017-06-01T18:12:04.440Z,23.10
2017-06-01T18:14:32.895Z,23.40
2017-06-01T18:17:01.988Z,23.60
2017-06-01T18:19:30.844Z,24.00
2017-06-01T18:21:59.180Z,24.40
2017-06-01T18:24:27.516Z,24.40
2017-06-01T18:26:56.139Z,24.80
2017-06-01T18:29:24.503Z,25.20
2017-06-01T18:31:52.812Z,25.50
2017-06-01T18:34:21.428Z,26.00
2017-06-01T18:36:49.728Z,26.40
2017-06-01T18:39:18.067Z,27.00
2017-06-01T18:41:46.855Z,27.40
2017-06-01T18:44:15.201Z,27.30
2017-06-01T18:46:43.498Z,27.00
2017-06-01T18:49:12.123Z,27.40
2017-06-01T18:51:40.410Z,27.80
2017-06-01T18:54:08.706Z,28.20
2017-06-01T18:56:37.333Z,28.60
2017-06-01T18:59:05.624Z,28.70
2017-06-01T19:01:33.896Z,29.20
2017-06-01T19:04:02.570Z,29.50
2017-06-01T19:06:30.897Z,29.60
2017-06-01T19:08:59.600Z,29.80
2017-06-01T19:11:28.243Z,29.90
2017-06-01T19:13:56.537Z,30.10
2017-06-01T19:16:24.817Z,30.60
2017-06-01T19:18:53.392Z,32.00
2017-06-01T19:21:21.681Z,30.90
2017-06-01T19:23:49.965Z,31.60
2017-06-01T19:26:18.602Z,31.50
2017-06-01T19:28:46.888Z,32.10
2017-06-01T19:31:15.203Z,32.40
2017-06-01T19:33:43.790Z,33.00
2017-06-01T19:36:12.091Z,32.70
2017-06-01T19:38:40.364Z,32.60
2017-06-01T19:41:09.006Z,33.30
2017-06-01T19:43:37.820Z,33.40
2017-06-01T19:46:06.090Z,33.70
2017-06-01T19:48:34.691Z,33.70
2017-06-01T19:51:02.978Z,33.80
2017-06-01T19:53:31.254Z,34.40
2017-06-01T19:55:59.992Z,34.70
2017-06-01T19:58:28.263Z,34.50
2017-06-01T20:00:56.535Z,34.90
2017-06-01T20:03:25.094Z,35.10
2017-06-01T20:05:53.371Z,35.80
2017-06-01T20:08:21.647Z,35.50
2017-06-01T20:10:50.257Z,35.60
2017-06-01T20:13:18.557Z,35.80
2017-06-01T20:15:46.832Z,35.70
2017-06-01T20:18:15.438Z,36.30
2017-06-01T20:20:43.731Z,36.00
2017-06-01T20:23:12.028Z,36.10
2017-06-01T20:25:40.652Z,36.60
2017-06-01T20:28:08.929Z,37.10
2017-06-01T20:30:37.212Z,37.30
2017-06-01T20:33:05.846Z,38.00
2017-06-01T20:35:34.207Z,37.90
2017-06-01T20:38:02.491Z,37.70
2017-06-01T20:40:31.243Z,37.40
2017-06-01T20:42:59.522Z,37.50
2017-06-01T20:45:27.802Z,37.80
2017-06-01T20:47:56.430Z,38.70
2017-06-01T20:50:24.721Z,38.40
2017-06-01T20:52:52.999Z,38.80
2017-06-01T20:55:21.622Z,38.90
2017-06-01T20:57:49.907Z,38.60
2017-06-01T21:00:18.208Z,38.90
2017-06-01T21:02:46.809Z,39.30
2017-06-01T21:05:15.099Z,39.20
2017-06-01T21:07:43.424Z,39.50
2017-06-01T21:10:11.990Z,39.60
2017-06-01T21:12:40.265Z,40.10
2017-06-01T21:15:08.677Z,40.50
2017-06-01T21:17:37.290Z,40.80
2017-06-01T21:20:05.569Z,40.50
2017-06-01T21:22:33.872Z,40.70
2017-06-01T21:25:02.594Z,40.80
2017-06-01T21:27:30.895Z,41.20
2017-06-01T21:29:59.187Z,41.60
2017-06-01T21:32:27.894Z,41.80
2017-06-01T21:34:56.171Z,42.30
2017-06-01T21:37:24.447Z,42.60
2017-06-01T21:39:53.181Z,43.00
2017-06-01T21:42:21.453Z,42.90
2017-06-01T21:44:49.729Z,43.40
2017-06-01T21:47:18.371Z,43.10
2017-06-01T21:49:46.643Z,43.00
2017-06-01T21:52:14.919Z,43.50
2017-06-01T21:54:43.988Z,43.40
2017-06-01T21:57:12.264Z,43.60
2017-06-01T21:59:40.539Z,43.80
2017-06-01T22:02:09.267Z,44.40
2017-06-01T22:04:37.538Z,45.20
2017-06-01T22:07:05.819Z,44.80
2017-06-01T22:09:34.462Z,44.90
2017-06-01T22:12:02.747Z,45.70
2017-06-01T22:14:31.039Z,44.40
2017-06-01T22:16:59.767Z,43.30
2017-06-01T22:19:28.046Z,43.30
2017-06-01T22:21:56.331Z,42.80
2017-06-01T22:24:24.935Z,43.10
2017-06-01T22:26:53.211Z,42.40
2017-06-01T22:29:21.486Z,42.50
2017-06-01T22:31:50.123Z,43.10
2017-06-01T22:34:18.395Z,42.30
2017-06-01T22:36:46.663Z,43.00
2017-06-01T22:39:15.337Z,43.20
2017-06-01T22:41:43.631Z,43.60
2017-06-01T22:44:11.910Z,44.50
2017-06-01T22:46:40.507Z,43.30
2017-06-01T22:49:08.796Z,43.80
2017-06-01T22:51:37.071Z,44.10
2017-06-01T22:54:05.698Z,43.60
2017-06-01T22:56:33.969Z,44.40
2017-06-01T22:59:02.245Z,44.30
2017-06-01T23:01:30.807Z,44.50
2017-06-01T23:03:59.080Z,44.90
2017-06-01T23:06:27.346Z,45.00
2017-06-01T23:08:55.979Z,45.30
2017-06-01T23:11:24.249Z,45.80
2017-06-01T23:13:52.515Z,45.80
2017-06-01T23:16:21.179Z,45.50
2017-06-01T23:18:49.458Z,44.80
2017-06-01T23:21:17.742Z,44.90
2017-06-01T23:23:46.368Z,44.40
2017-06-01T23:26:14.645Z,45.40
2017-06-01T23:28:42.922Z,45.50
2017-06-01T23:31:11.562Z,46.30
2017-06-01T23:33:39.840Z,46.40
2017-06-01T23:36:08.111Z,47.00
2017-06-01T23:38:36.751Z,46.60
2017-06-01T23:41:05.036Z,46.90
2017-06-01T23:43:33.320Z,47.70
2017-06-01T23:46:01.943Z,47.70
2017-06-01T23:48:30.219Z,48.40
2017-06-01T23:50:58.507Z,48.80
2017-06-01T23:53:27.131Z,48.80
2017-06-01T23:55:55.407Z,49.40
2017-06-01T23:58:23.700Z,49.50
